Latest Weather Observations for Spitfire Channel

IDQ60801

Issued at 2:31 pm EST Wednesday 5 August 2015 (issued every 30 minutes, with the page automatically refreshed every 10 minutes)

About weather observations | Map of weather stations | Latest weather observations for QLD | Other Formats
Station Details ID: 040927 Name: SPITFIRE CHANNEL BEACON Lat: -27.05 Lon: 153.27 Height: 7.0 m
Data from the previous 72 hours. | See also: Recent months for locations in Queensland
Date/Time
EST
Temp
°C
App
Temp
°C
Dew
Point
Rel
Hum
%
Delta-T
°C
Wind Press
QNH
hPa
Press
MSL
hPa
Rain
since 9 am
mm
Dir
 
Spd
km/h
Gust
km/h
Spd
kts
Gust
kts
05/02:00pm - - - - - SW 20 24 11 13 - - -
05/01:30pm - - - - - SW 22 28 12 15 - - -
05/01:00pm - - - - - SW 19 24 10 13 - - -
05/12:30pm - - - - - SW 19 24 10 13 - - -
05/12:00pm - - - - - SSW 20 28 11 15 - - -
05/11:30am - - - - - SSW 22 28 12 15 - - -
05/11:00am - - - - - SSW 19 24 10 13 - - -
05/10:30am - - - - - SW 20 24 11 13 - - -
05/10:00am - - - - - SSW 22 26 12 14 - - -
05/09:30am - - - - - SW 22 26 12 14 - - -
05/09:00am - - - - - SW 19 26 10 14 - - -
05/08:30am - - - - - SW 20 26 11 14 - - -
05/08:00am - - - - - SW 30 35 16 19 - - -
05/07:30am - - - - - SW 26 37 14 20 - - -
05/07:00am - - - - - SW 28 35 15 19 - - -
05/06:30am - - - - - SW 32 39 17 21 - - -
05/06:00am - - - - - SW 26 33 14 18 - - -
05/05:30am - - - - - SW 28 35 15 19 - - -
05/05:00am - - - - - WSW 32 41 17 22 - - -
05/04:30am - - - - - WSW 26 32 14 17 - - -
05/04:00am - - - - - SW 35 41 19 22 - - -
05/03:30am - - - - - SW 39 46 21 25 - - -
05/03:00am - - - - - SW 41 48 22 26 - - -
05/02:30am - - - - - SW 35 44 19 24 - - -
05/02:00am - - - - - SW 43 52 23 28 - - -
05/01:30am - - - - - SW 44 57 24 31 - - -
05/01:00am - - - - - SW 39 46 21 25 - - -
05/12:30am - - - - - SW 37 46 20 25 - - -
05/12:00am - - - - - SW 41 48 22 26 - - -
 
Date/Time
EST
Temp
°C
App
Temp
°C
Dew
Point
Rel
Hum
%
Delta-T
°C
Wind Press
QNH
hPa
Press
MSL
hPa
Rain
since 9 am
mm
Dir
 
Spd
km/h
Gust
km/h
Spd
kts
Gust
kts
04/11:30pm - - - - - SW 32 37 17 20 - - -
04/11:00pm - - - - - SW 22 26 12 14 - - -
04/10:30pm - - - - - SW 26 32 14 17 - - -
04/10:00pm - - - - - SW 26 32 14 17 - - -
04/09:30pm - - - - - SW 26 35 14 19 - - -
04/09:00pm - - - - - SSW 11 20 6 11 - - -
04/08:30pm - - - - - SSE 11 15 6 8 - - -
04/08:00pm - - - - - SE 13 15 7 8 - - -
04/07:30pm - - - - - SE 13 15 7 8 - - -
04/07:00pm - - - - - SE 13 17 7 9 - - -
04/06:30pm - - - - - SE 17 20 9 11 - - -
04/06:00pm - - - - - ESE 19 22 10 12 - - -
04/05:30pm - - - - - SE 19 22 10 12 - - -
04/05:00pm - - - - - SE 20 24 11 13 - - -
04/04:30pm - - - - - SE 22 26 12 14 - - -
04/04:00pm - - - - - SSE 26 30 14 16 - - -
04/03:30pm - - - - - SSE 28 32 15 17 - - -
04/03:00pm - - - - - SSE 26 30 14 16 - - -
04/02:30pm - - - - - SSE 26 30 14 16 - - -
04/02:00pm - - - - - SSE 26 30 14 16 - - -
04/01:30pm - - - - - SSE 28 33 15 18 - - -
04/01:00pm - - - - - SSE 26 30 14 16 - - -
04/12:30pm - - - - - S 26 30 14 16 - - -
04/12:00pm - - - - - S 28 33 15 18 - - -
04/11:30am - - - - - S 28 33 15 18 - - -
04/11:00am - - - - - S 28 33 15 18 - - -
04/10:30am - - - - - S 28 32 15 17 - - -
04/10:00am - - - - - S 28 32 15 17 - - -
04/09:30am - - - - - S 26 30 14 16 - - -
04/09:00am - - - - - S 26 28 14 15 - - -
04/08:30am - - - - - S 22 26 12 14 - - -
04/08:00am - - - - - S 19 24 10 13 - - -
04/07:30am - - - - - SSW 15 17 8 9 - - -
04/07:00am - - - - - SW 11 13 6 7 - - -
04/06:30am - - - - - SW 13 15 7 8 - - -
04/06:00am - - - - - WSW 11 13 6 7 - - -
04/05:30am - - - - - WSW 11 15 6 8 - - -
04/05:00am - - - - - SW 7 11 4 6 - - -
04/04:30am - - - - - SW 17 20 9 11 - - -
04/04:00am - - - - - SW 19 20 10 11 - - -
04/03:30am - - - - - SSW 19 22 10 12 - - -
04/03:00am - - - - - SW 15 20 8 11 - - -
04/02:30am - - - - - SSW 13 19 7 10 - - -
04/02:00am - - - - - SW 13 17 7 9 - - -
04/01:30am - - - - - SW 20 22 11 12 - - -
04/01:00am - - - - - SW 13 17 7 9 - - -
04/12:30am - - - - - SW 17 20 9 11 - - -
04/12:00am - - - - - SSW 17 20 9 11 - - -
 
Date/Time
EST
Temp
°C
App
Temp
°C
Dew
Point
Rel
Hum
%
Delta-T
°C
Wind Press
QNH
hPa
Press
MSL
hPa
Rain
since 9 am
mm
Dir
 
Spd
km/h
Gust
km/h
Spd
kts
Gust
kts
03/11:30pm - - - - - SSW 17 20 9 11 - - -
03/11:00pm - - - - - SW 19 24 10 13 - - -
03/10:30pm - - - - - SW 17 20 9 11 - - -
03/10:00pm - - - - - SW 13 15 7 8 - - -
03/09:30pm - - - - - WSW 15 17 8 9 - - -
03/09:00pm - - - - - W 15 17 8 9 - - -
03/08:30pm - - - - - NW 15 17 8 9 - - -
03/08:00pm - - - - - NNW 24 30 13 16 - - -
03/07:30pm - - - - - NW 24 26 13 14 - - -
03/07:00pm - - - - - NNW 24 33 13 18 - - -
03/06:30pm - - - - - N 26 28 14 15 - - -
03/06:00pm - - - - - N 28 32 15 17 - - -
03/05:30pm - - - - - N 30 32 16 17 - - -
03/05:00pm - - - - - N 28 33 15 18 - - -
03/04:30pm - - - - - N 26 32 14 17 - - -
03/04:00pm - - - - - N 28 32 15 17 - - -
03/03:30pm - - - - - N 28 33 15 18 - - -
03/03:00pm - - - - - N 24 30 13 16 - - -
03/02:30pm - - - - - N 26 30 14 16 - - -
03/02:00pm - - - - - N 24 28 13 15 - - -
03/01:30pm - - - - - N 24 28 13 15 - - -
03/01:00pm - - - - - N 24 28 13 15 - - -
03/12:30pm - - - - - N 24 28 13 15 - - -
03/12:00pm - - - - - N 24 30 13 16 - - -
03/11:30am - - - - - NNW 28 32 15 17 - - -
03/11:00am - - - - - NNW 26 32 14 17 - - -
03/10:30am - - - - - NNW 24 28 13 15 - - -
03/10:00am - - - - - NNW 26 28 14 15 - - -
03/09:30am - - - - - NW 22 24 12 13 - - -
03/09:00am - - - - - NW 24 28 13 15 - - -
03/08:30am - - - - - NW 28 32 15 17 - - -
03/08:00am - - - - - NW 28 32 15 17 - - -
03/07:30am - - - - - NW 28 33 15 18 - - -
03/07:00am - - - - - NW 28 32 15 17 - - -
03/06:30am - - - - - NW 28 32 15 17 - - -
03/06:00am - - - - - NW 30 35 16 19 - - -
03/05:30am - - - - - NW 32 37 17 20 - - -
03/05:00am - - - - - NW 30 35 16 19 - - -
03/04:30am - - - - - NW 26 32 14 17 - - -
03/04:00am - - - - - NW 26 32 14 17 - - -
03/03:30am - - - - - NW 24 30 13 16 - - -
03/03:00am - - - - - NW 24 32 13 17 - - -
03/02:30am - - - - - NW 28 32 15 17 - - -
03/02:00am - - - - - NW 22 28 12 15 - - -
03/01:30am - - - - - NW 24 28 13 15 - - -
03/01:00am - - - - - NW 22 28 12 15 - - -
03/12:30am - - - - - NW 28 32 15 17 - - -
03/12:00am - - - - - NNW 28 33 15 18 - - -
 
Date/Time
EST
Temp
°C
App
Temp
°C
Dew
Point
Rel
Hum
%
Delta-T
°C
Wind Press
QNH
hPa
Press
MSL
hPa
Rain
since 9 am
mm
Dir
 
Spd
km/h
Gust
km/h
Spd
kts
Gust
kts
02/11:30pm - - - - - NNW 28 35 15 19 - - -
02/11:00pm - - - - - NNW 32 37 17 20 - - -
02/10:30pm - - - - - NW 30 35 16 19 - - -
02/10:00pm - - - - - NNW 32 37 17 20 - - -
02/09:30pm - - - - - NNW 32 35 17 19 - - -
02/09:00pm - - - - - N 32 37 17 20 - - -
02/08:30pm - - - - - NNW 30 33 16 18 - - -
02/08:00pm - - - - - N 28 32 15 17 - - -
02/07:30pm - - - - - N 30 33 16 18 - - -
02/07:00pm - - - - - N 28 32 15 17 - - -
02/06:30pm - - - - - N 28 33 15 18 - - -
02/06:00pm - - - - - N 28 32 15 17 - - -
02/05:30pm - - - - - N 26 30 14 16 - - -
02/05:00pm - - - - - N 26 30 14 16 - - -
02/04:30pm - - - - - N 24 28 13 15 - - -
02/04:00pm - - - - - N 24 30 13 16 - - -
02/03:30pm - - - - - N 24 30 13 16 - - -
02/03:00pm - - - - - N 22 26 12 14 - - -

Other Formats:

Comma delimited format used in spreadsheet applications
http://www.bom.gov.au/fwo/IDQ60801/IDQ60801.94581.axf

JavaScript Object Notation format (JSON) in row-major order
http://www.bom.gov.au/fwo/IDQ60801/IDQ60801.94581.json